Virginia Foothills, Nevada
Current Conditions -  °F | °C
As of 7:55 AM on Saturday 20 Dec 2014 (Local Time) from KRNO Reporting Station
Overcast Overcast  
Wind Chill: 39°   Ceiling: 8000
Heat Index: 43°   Visibility: 10mi
Dew Point: 35°   Wind: 6mph
Humidity: 74%   Direction: 200°SSW
Pressure: 30.09"   Gusts: NA
Location:  39.3905°N, 119.807°W
Report Text: KRNO 201555Z 20005KT 10SM FEW030 SCT050 BKN080 BKN140 OVC180 06/02 A3009 RMK AO2 SLP180 ACSL DSNT NW-N CLDS TPG MTNS DSNT SW W T00610017
Loading
Personal Weather Stations






























Interactive Weather Map New forecast layout! Learn more

10-Day Weather Forecast

Advertisements
Track Severe Weather on mobile